Time;durP1;ratioP1;P1;durP2;ratioP2;P2;SDS_P1;SDS_P2;PMS_P1;PMS_P2;Temp;Humidity;BMP_temperature;BMP_pressure;BME280_temperature;BME280_humidity;BME280_pressure;Samples;Min_cycle;Max_cycle;Signal;HPM_P1;HPM_P2
2022/07/31 00:00:22;;;;;;;;;;;;;;;18.77;55.91;100707.13;5087205;28;19971;-63
2022/07/31 00:02:47;;;;;;;;;;;;;;;18.72;56.29;100703.84;5086486;28;20011;-63
2022/07/31 00:05:13;;;;;;;;;;;;;;;18.66;56.43;100704.91;5087186;28;19976;-63
2022/07/31 00:07:38;;;;;;;;;;;;;;;18.62;56.36;100708.59;5086427;28;20376;-63
2022/07/31 00:10:04;;;;;;;;;;;;;;;18.57;56.87;100710.53;5086700;28;19973;-63
2022/07/31 00:12:29;;;;;;;;;;;;;;;18.51;56.92;100709.00;5086839;28;19909;-63
2022/07/31 00:14:54;;;;;;;;;;;;;;;18.48;57.54;100703.84;5086577;28;19908;-63
2022/07/31 00:17:20;;;;;;;;;;;;;;;18.44;57.23;100697.84;5086521;28;19916;-63
2022/07/31 00:19:45;;;;;;;;;;;;;;;18.41;57.86;100705.84;5086337;28;20375;-63
2022/07/31 00:22:12;;;;;;;;;;;;;;;18.40;57.96;100698.03;5086171;28;19972;-63
2022/07/31 00:24:37;;;;;;;;;;;;;;;18.37;58.37;100700.75;5086411;28;19912;-63
2022/07/31 00:27:03;;;;;;;;;;;;;;;18.35;58.32;100698.19;5086412;28;19966;-63
2022/07/31 00:29:29;;;;;;;;;;;;;;;18.33;58.56;100700.88;5086417;28;19908;-63
2022/07/31 00:31:55;;;;;;;;;;;;;;;18.33;58.90;100702.63;5086363;28;19908;-63
2022/07/31 00:34:20;;;;;;;;;;;;;;;18.31;59.14;100700.06;5086298;28;19908;-63
2022/07/31 00:36:46;;;;;;;;;;;;;;;18.30;59.17;100697.50;5085888;28;19980;-63
2022/07/31 00:39:11;;;;;;;;;;;;;;;18.29;59.46;100696.63;5085899;28;19931;-63
2022/07/31 00:41:41;;;;;;;;;;;;;;;18.28;59.68;100694.06;5085775;28;19989;-63
2022/07/31 00:44:06;;;;;;;;;;;;;;;18.26;59.88;100696.72;5086143;28;19948;-64
2022/07/31 00:46:31;;;;;;;;;;;;;;;18.26;60.01;100695.91;5086079;28;19916;-63
2022/07/31 00:48:57;;;;;;;;;;;;;;;18.24;59.84;100687.19;5086165;28;19912;-63
2022/07/31 00:51:22;;;;;;;;;;;;;;;18.26;59.97;100693.28;5085813;28;20006;-63
2022/07/31 00:53:47;;;;;;;;;;;;;;;18.27;60.06;100694.97;5085514;28;19916;-63
2022/07/31 00:56:12;;;;;;;;;;;;;;;18.26;59.99;100690.66;5085492;28;19921;-63
2022/07/31 00:58:38;;;;;;;;;;;;;;;18.26;59.65;100690.66;5085616;28;20261;-63
2022/07/31 01:01:03;;;;;;;;;;;;;;;18.27;59.57;100687.09;5085725;28;19912;-63
2022/07/31 01:03:28;;;;;;;;;;;;;;;18.30;59.39;100684.34;5085560;28;19964;-63
2022/07/31 01:05:53;;;;;;;;;;;;;;;18.32;59.14;100680.75;5085697;28;19915;-63
2022/07/31 01:08:19;;;;;;;;;;;;;;;18.37;59.02;100685.00;5085451;28;20430;-63
2022/07/31 01:10:53;;;;;;;;;;;;;;;18.37;58.93;100690.25;5085546;28;20334;-63
2022/07/31 01:13:25;;;;;;;;;;;;;;;18.36;59.45;100683.25;5085956;28;19939;-63
2022/07/31 01:15:52;;;;;;;;;;;;;;;18.33;59.71;100681.59;5085675;28;20003;-63
2022/07/31 01:18:17;;;;;;;;;;;;;;;18.33;60.27;100676.34;5085630;28;19948;-63
2022/07/31 01:20:44;;;;;;;;;;;;;;;18.37;59.81;100685.00;5085795;28;19909;-63
2022/07/31 01:23:17;;;;;;;;;;;;;;;18.40;59.39;100682.25;5085452;28;19908;-63
2022/07/31 01:25:57;;;;;;;;;;;;;;;18.41;59.37;100679.56;5085451;28;19918;-63
2022/07/31 01:28:22;;;;;;;;;;;;;;;18.43;59.13;100675.13;5085617;28;19948;-63
2022/07/31 01:30:51;;;;;;;;;;;;;;;18.47;59.09;100672.38;5085563;28;19908;-63
2022/07/31 01:33:21;;;;;;;;;;;;;;;18.45;59.36;100675.06;5085347;28;19908;-63
2022/07/31 01:36:01;;;;;;;;;;;;;;;18.45;59.38;100680.31;5085297;28;19916;-63
2022/07/31 01:38:35;;;;;;;;;;;;;;;18.46;59.71;100671.50;5085403;28;19908;-63
2022/07/31 01:41:03;;;;;;;;;;;;;;;18.40;59.59;100663.84;5085581;28;19944;-63
2022/07/31 01:43:31;;;;;;;;;;;;;;;18.40;59.75;100671.72;5085416;28;19930;-63
2022/07/31 01:45:57;;;;;;;;;;;;;;;18.40;59.54;100661.22;5085225;28;19975;-63
2022/07/31 01:48:24;;;;;;;;;;;;;;;18.41;59.87;100657.66;5086115;28;19908;-63
2022/07/31 01:50:51;;;;;;;;;;;;;;;18.38;60.51;100665.66;5089295;28;19908;-63
2022/07/31 01:53:18;;;;;;;;;;;;;;;18.34;60.56;100667.53;5089006;28;19931;-64
2022/07/31 01:55:44;;;;;;;;;;;;;;;18.32;60.96;100667.59;5089140;28;19917;-63
2022/07/31 01:58:10;;;;;;;;;;;;;;;18.29;61.33;100666.88;5089276;28;20388;-64
2022/07/31 02:00:36;;;;;;;;;;;;;;;18.28;61.16;100668.63;5089191;28;19915;-64
2022/07/31 02:03:03;;;;;;;;;;;;;;;18.27;61.34;100672.19;5088919;28;19908;-63
2022/07/31 02:05:29;;;;;;;;;;;;;;;18.24;61.40;100677.56;5089176;28;20003;-63
2022/07/31 02:07:54;;;;;;;;;;;;;;;18.24;61.58;100667.06;5089055;28;19908;-63
2022/07/31 02:10:20;;;;;;;;;;;;;;;18.25;61.52;100662.63;5088833;28;20004;-63
2022/07/31 02:12:46;;;;;;;;;;;;;;;18.26;62.21;100659.13;5089090;28;19908;-63
2022/07/31 02:15:13;;;;;;;;;;;;;;;18.18;62.08;100668.13;5089251;28;19916;-63
2022/07/31 02:17:40;;;;;;;;;;;;;;;18.17;62.11;100662.91;5088475;28;19908;-63
2022/07/31 02:20:08;;;;;;;;;;;;;;;18.19;62.07;100656.72;5088503;28;19908;-63
2022/07/31 02:22:33;;;;;;;;;;;;;;;18.23;62.91;100656.59;5088785;28;19919;-63
2022/07/31 02:24:59;;;;;;;;;;;;;;;18.17;62.76;100653.28;5088506;28;19942;-63
2022/07/31 02:27:25;;;;;;;;;;;;;;;18.18;63.05;100654.09;5088357;28;19908;-63
2022/07/31 02:29:52;;;;;;;;;;;;;;;18.14;63.25;100647.25;5088660;28;19948;-63
2022/07/31 02:32:17;;;;;;;;;;;;;;;18.15;62.87;100646.34;5088663;28;19912;-63
2022/07/31 02:34:44;;;;;;;;;;;;;;;18.14;62.87;100642.00;5088767;28;19915;-63
2022/07/31 02:37:10;;;;;;;;;;;;;;;18.12;62.91;100642.06;5088183;28;20380;-63
2022/07/31 02:39:36;;;;;;;;;;;;;;;18.15;62.38;100636.69;5088553;28;19909;-63
2022/07/31 02:42:02;;;;;;;;;;;;;;;18.14;63.06;100631.50;5088198;28;19919;-63
2022/07/31 02:44:30;;;;;;;;;;;;;;;18.14;63.17;100634.13;5088493;28;19912;-63
2022/07/31 02:46:56;;;;;;;;;;;;;;;18.17;63.26;100639.28;5088223;28;19931;-63
2022/07/31 02:49:22;;;;;;;;;;;;;;;18.13;63.42;100638.50;5088141;28;19935;-63
2022/07/31 02:51:47;;;;;;;;;;;;;;;18.12;63.76;100634.19;5088101;28;19912;-63
2022/07/31 02:54:13;;;;;;;;;;;;;;;18.09;63.74;100636.88;5088073;28;19912;-63
2022/07/31 02:56:39;;;;;;;;;;;;;;;18.10;63.99;100633.34;5088057;28;19923;-63
2022/07/31 02:59:04;;;;;;;;;;;;;;;18.08;64.05;100630.78;5088002;28;19931;-63
2022/07/31 03:01:33;;;;;;;;;;;;;;;18.07;64.29;100631.69;5087995;28;20367;-63
2022/07/31 03:03:58;;;;;;;;;;;;;;;18.06;64.66;100637.00;5087802;28;19980;-63
2022/07/31 03:06:23;;;;;;;;;;;;;;;17.99;65.13;100622.41;5087828;28;19923;-63
2022/07/31 03:08:48;;;;;;;;;;;;;;;18.04;65.11;100633.56;5087935;28;19930;-63
2022/07/31 03:11:14;;;;;;;;;;;;;;;18.00;65.53;100627.59;5087670;28;20402;-63
2022/07/31 03:13:40;;;;;;;;;;;;;;;17.96;65.97;100631.22;5088016;28;19908;-63
2022/07/31 03:16:08;;;;;;;;;;;;;;;17.93;65.82;100620.81;5088101;28;19912;-63
2022/07/31 03:18:34;;;;;;;;;;;;;;;17.93;65.91;100626.06;5087949;28;20014;-63
2022/07/31 03:21:00;;;;;;;;;;;;;;;17.91;66.92;100627.88;5087707;28;20360;-63
2022/07/31 03:23:26;;;;;;;;;;;;;;;17.84;67.10;100628.13;5087313;28;19908;-63
2022/07/31 03:25:52;;;;;;;;;;;;;;;17.78;67.46;100627.50;5087614;28;19908;-63
2022/07/31 03:28:18;;;;;;;;;;;;;;;17.79;67.43;100623.94;5087490;28;19919;-63
2022/07/31 03:30:44;;;;;;;;;;;;;;;17.73;67.96;100617.16;5087361;28;19959;-62
2022/07/31 03:33:10;;;;;;;;;;;;;;;17.67;68.58;100626.09;5087468;28;19943;-62
2022/07/31 03:35:35;;;;;;;;;;;;;;;17.64;68.72;100620.06;5087596;28;19916;-63
2022/07/31 03:38:00;;;;;;;;;;;;;;;17.59;68.89;100621.09;5085920;28;19940;-63
2022/07/31 03:40:25;;;;;;;;;;;;;;;17.55;69.27;100616.03;5087580;28;19905;-62
2022/07/31 03:42:51;;;;;;;;;;;;;;;17.48;69.51;100619.78;5087372;28;19919;-62
2022/07/31 03:45:17;;;;;;;;;;;;;;;17.45;69.25;100620.72;5087085;28;19931;-63
2022/07/31 03:47:43;;;;;;;;;;;;;;;17.43;69.05;100617.28;5086908;28;19930;-63
2022/07/31 03:50:09;;;;;;;;;;;;;;;17.45;68.58;100620.72;5087160;28;20372;-62
2022/07/31 03:52:35;;;;;;;;;;;;;;;17.48;68.70;100617.16;5086723;28;19912;-62
2022/07/31 03:55:00;;;;;;;;;;;;;;;17.48;69.19;100612.75;5086686;28;19969;-62
2022/07/31 03:57:27;;;;;;;;;;;;;;;17.47;69.81;100613.66;5087081;28;19909;-63
2022/07/31 03:59:56;;;;;;;;;;;;;;;17.45;70.25;100616.34;5086870;28;19915;-63
2022/07/31 04:02:21;;;;;;;;;;;;;;;17.46;70.27;100618.03;5086699;28;19912;-63
2022/07/31 04:04:47;;;;;;;;;;;;;;;17.50;70.48;100613.56;5087103;28;19914;-63
2022/07/31 04:07:12;;;;;;;;;;;;;;;17.52;70.33;100617.00;5086950;28;19938;-63
2022/07/31 04:09:37;;;;;;;;;;;;;;;17.56;70.63;100613.34;5086874;28;19916;-63
2022/07/31 04:12:03;;;;;;;;;;;;;;;17.58;70.54;100611.53;5086182;28;19908;-63
2022/07/31 04:14:28;;;;;;;;;;;;;;;17.63;70.71;100614.00;5086719;28;19919;-62
2022/07/31 04:16:53;;;;;;;;;;;;;;;17.64;70.77;100612.19;5086803;28;19914;-63
2022/07/31 04:19:19;;;;;;;;;;;;;;;17.66;70.80;100605.13;5086418;28;19931;-63
2022/07/31 04:21:44;;;;;;;;;;;;;;;17.67;70.80;100609.47;5085286;28;19913;-62
2022/07/31 04:24:10;;;;;;;;;;;;;;;17.74;70.89;100612.75;5086408;28;19908;-63
2022/07/31 04:26:35;;;;;;;;;;;;;;;17.72;70.77;100610.16;5086525;28;19958;-63
2022/07/31 04:29:01;;;;;;;;;;;;;;;17.72;70.85;100612.78;5086034;28;19908;-63
2022/07/31 04:31:26;;;;;;;;;;;;;;;17.70;71.00;100610.22;5086225;28;19908;-63
2022/07/31 04:33:51;;;;;;;;;;;;;;;17.69;71.20;100607.66;5086272;28;19999;-63
2022/07/31 04:36:16;;;;;;;;;;;;;;;17.69;71.20;100612.91;5086252;28;19912;-63
2022/07/31 04:38:42;;;;;;;;;;;;;;;17.67;71.28;100605.09;5086027;28;19971;-63
2022/07/31 04:41:07;;;;;;;;;;;;;;;17.66;71.31;100603.38;5085959;28;19939;-63
2022/07/31 04:43:33;;;;;;;;;;;;;;;17.69;71.44;100608.53;5086241;28;20283;-63
2022/07/31 04:45:58;;;;;;;;;;;;;;;17.66;71.55;100602.50;5086196;28;19908;-63
2022/07/31 04:48:23;;;;;;;;;;;;;;;17.63;71.80;100602.63;5085739;28;19908;-63
2022/07/31 04:50:48;;;;;;;;;;;;;;;17.64;71.69;100599.06;5086107;28;19915;-63
2022/07/31 04:53:13;;;;;;;;;;;;;;;17.64;71.80;100604.31;5085609;28;19976;-62
2022/07/31 04:55:39;;;;;;;;;;;;;;;17.63;71.61;100597.38;5085458;28;19939;-63
2022/07/31 04:58:04;;;;;;;;;;;;;;;17.68;71.91;100608.56;5085595;28;19914;-62
2022/07/31 05:00:29;;;;;;;;;;;;;;;17.65;71.91;100600.81;5085730;28;19908;-62
2022/07/31 05:02:54;;;;;;;;;;;;;;;17.65;71.98;100608.69;5085730;28;19947;-62
2022/07/31 05:05:20;;;;;;;;;;;;;;;17.66;72.01;100602.50;5085933;28;20326;-63
2022/07/31 05:07:45;;;;;;;;;;;;;;;17.63;72.46;100602.63;5085686;28;19908;-63
2022/07/31 05:11:21;;;;;;;;;;;;;;;17.64;72.39;100609.56;5085305;28;19908;-62
2022/07/31 05:12:55;;;;;;;;;;;;;;;17.63;72.75;100600.00;5085499;28;19909;-63
2022/07/31 05:15:21;;;;;;;;;;;;;;;17.63;72.98;100594.75;5085457;28;20007;-63
2022/07/31 05:17:46;;;;;;;;;;;;;;;17.58;73.33;100600.16;5085510;28;19908;-63
2022/07/31 05:20:12;;;;;;;;;;;;;;;17.61;73.56;100599.19;5085600;28;19915;-63
2022/07/31 05:22:37;;;;;;;;;;;;;;;17.56;73.55;100608.09;5085076;28;20452;-63
2022/07/31 05:25:02;;;;;;;;;;;;;;;17.58;73.54;100616.78;5085461;28;19912;-62
2022/07/31 05:27:27;;;;;;;;;;;;;;;17.60;73.20;100608.84;5085728;28;19916;-63
2022/07/31 05:29:53;;;;;;;;;;;;;;;17.63;73.18;100610.50;5085815;28;19920;-63
2022/07/31 05:32:18;;;;;;;;;;;;;;;17.69;72.86;100612.91;5085603;28;20425;-63
2022/07/31 05:34:43;;;;;;;;;;;;;;;17.71;72.95;100618.97;5085160;28;19916;-62
2022/07/31 05:37:09;;;;;;;;;;;;;;;17.71;72.92;100616.34;5085232;28;19940;-63
2022/07/31 05:39:34;;;;;;;;;;;;;;;17.71;73.31;100608.47;5085573;28;19908;-63
2022/07/31 05:41:59;;;;;;;;;;;;;;;17.70;73.64;100612.84;5085478;28;19920;-62
2022/07/31 05:44:24;;;;;;;;;;;;;;;17.66;73.92;100618.25;5085455;28;19908;-62
2022/07/31 05:46:50;;;;;;;;;;;;;;;17.68;74.33;100613.84;5085465;28;19940;-63
2022/07/31 05:49:15;;;;;;;;;;;;;;;17.63;74.83;100615.75;5085205;28;19908;-62
2022/07/31 05:51:43;;;;;;;;;;;;;;;17.62;75.01;100611.41;5084832;28;19966;-62
2022/07/31 05:54:08;;;;;;;;;;;;;;;17.61;75.21;100618.44;5084887;28;19950;-62
2022/07/31 05:56:34;;;;;;;;;;;;;;;17.61;75.26;100610.56;5084812;28;19917;-62
2022/07/31 05:58:59;;;;;;;;;;;;;;;17.63;75.56;100613.13;5085100;28;19912;-62
2022/07/31 06:01:24;;;;;;;;;;;;;;;17.60;75.58;100619.34;5085051;28;19920;-63
2022/07/31 06:03:49;;;;;;;;;;;;;;;17.65;75.65;100619.19;5085121;28;19908;-63
2022/07/31 06:06:15;;;;;;;;;;;;;;;17.70;75.76;100614.63;5085162;28;19908;-62
2022/07/31 06:08:40;;;;;;;;;;;;;;;17.68;75.66;100621.72;5084764;28;19908;-62
2022/07/31 06:11:05;;;;;;;;;;;;;;;17.70;75.76;100612.84;5085030;28;20255;-63
2022/07/31 06:13:31;;;;;;;;;;;;;;;17.70;75.52;100607.59;5085250;28;20323;-62
2022/07/31 06:15:56;;;;;;;;;;;;;;;17.71;75.54;100618.97;5084957;28;19999;-62
2022/07/31 06:18:22;;;;;;;;;;;;;;;17.78;75.49;100623.09;5084703;28;19908;-62
2022/07/31 06:20:47;;;;;;;;;;;;;;;17.84;75.41;100612.34;5084907;28;19909;-63
2022/07/31 06:23:12;;;;;;;;;;;;;;;17.89;75.22;100621.84;5084546;28;20359;-63
2022/07/31 06:25:37;;;;;;;;;;;;;;;18.03;75.18;100606.47;5083327;28;19916;-63
2022/07/31 06:28:03;;;;;;;;;;;;;;;18.14;75.11;100607.84;5084424;28;19908;-63
2022/07/31 06:30:28;;;;;;;;;;;;;;;18.42;74.87;100612.06;5084866;28;20055;-63
2022/07/31 06:32:53;;;;;;;;;;;;;;;18.66;74.62;100606.75;5084842;28;19912;-63
2022/07/31 06:35:19;;;;;;;;;;;;;;;18.95;73.86;100616.16;5086955;28;19908;-63
2022/07/31 06:37:44;;;;;;;;;;;;;;;19.06;72.70;100599.91;5088457;28;19931;-63
2022/07/31 06:40:10;;;;;;;;;;;;;;;19.19;72.68;100599.44;5088121;28;19908;-63
2022/07/31 06:42:35;;;;;;;;;;;;;;;19.43;72.53;100601.94;5088177;28;19912;-63
2022/07/31 06:45:00;;;;;;;;;;;;;;;20.03;73.53;100602.94;5088444;28;19916;-63
2022/07/31 06:47:25;;;;;;;;;;;;;;;20.57;72.64;100596.94;5088319;28;19908;-63
2022/07/31 06:49:51;;;;;;;;;;;;;;;20.99;68.68;100588.84;5088076;28;19908;-63
2022/07/31 06:52:16;;;;;;;;;;;;;;;20.96;66.84;100597.72;5087831;28;19932;-63
2022/07/31 06:54:43;;;;;;;;;;;;;;;20.71;66.56;100596.28;5087777;28;19930;-63
2022/07/31 06:57:08;;;;;;;;;;;;;;;20.66;67.20;100596.50;5087771;28;19991;-63
2022/07/31 06:59:33;;;;;;;;;;;;;;;20.62;66.11;100591.44;5087505;28;19915;-63
2022/07/31 07:01:58;;;;;;;;;;;;;;;20.46;66.19;100594.81;5087772;28;19913;-63
2022/07/31 07:04:24;;;;;;;;;;;;;;;20.54;66.49;100587.38;5087952;28;19930;-63
2022/07/31 07:06:49;;;;;;;;;;;;;;;20.89;66.92;100591.91;5087858;28;19931;-63
2022/07/31 07:09:14;;;;;;;;;;;;;;;21.53;66.61;100586.09;5087837;28;19918;-63
2022/07/31 07:11:39;;;;;;;;;;;;;;;22.39;65.44;100581.59;5086552;28;20173;-64
2022/07/31 07:14:05;;;;;;;;;;;;;;;23.05;61.03;100583.25;5087825;28;19908;-63
2022/07/31 07:16:30;;;;;;;;;;;;;;;23.31;59.77;100572.06;5087755;28;19908;-63
2022/07/31 07:18:55;;;;;;;;;;;;;;;23.57;58.46;100570.50;5087595;28;19909;-63
2022/07/31 07:21:21;;;;;;;;;;;;;;;23.73;55.23;100567.75;5087631;28;19916;-63
2022/07/31 07:23:46;;;;;;;;;;;;;;;23.59;55.69;100568.63;5087610;28;19912;-63
2022/07/31 07:26:11;;;;;;;;;;;;;;;23.57;54.83;100573.16;5087424;28;19914;-63
2022/07/31 07:28:37;;;;;;;;;;;;;;;23.35;54.99;100566.47;5087614;28;19909;-63
2022/07/31 07:31:03;;;;;;;;;;;;;;;23.35;54.93;100561.19;5087431;28;19912;-63
2022/07/31 07:33:30;;;;;;;;;;;;;;;23.42;54.75;100559.00;5087531;28;19920;-63
2022/07/31 07:35:55;;;;;;;;;;;;;;;23.76;54.90;100564.06;5087348;28;19938;-63
2022/07/31 07:38:20;;;;;;;;;;;;;;;24.10;52.99;100554.00;5087397;28;19936;-63
2022/07/31 07:40:46;;;;;;;;;;;;;;;24.41;53.11;100547.69;5087431;28;19916;-64
2022/07/31 07:43:11;;;;;;;;;;;;;;;24.69;52.14;100549.41;5087240;28;19915;-63
2022/07/31 07:45:38;;;;;;;;;;;;;;;24.92;51.73;100552.31;5085248;28;19908;-64
2022/07/31 07:48:04;;;;;;;;;;;;;;;25.23;50.00;100555.56;5086815;28;19908;-64
2022/07/31 07:50:30;;;;;;;;;;;;;;;25.60;48.64;100548.66;5086894;28;19963;-64
2022/07/31 07:52:55;;;;;;;;;;;;;;;26.04;46.13;100543.00;5086441;28;19909;-64
2022/07/31 07:55:21;;;;;;;;;;;;;;;26.54;43.76;100544.72;5086683;28;19943;-64
2022/07/31 07:57:46;;;;;;;;;;;;;;;26.85;41.28;100548.59;5087148;28;19908;-64
2022/07/31 08:00:11;;;;;;;;;;;;;;;27.36;42.87;100545.72;5086745;28;19909;-64
2022/07/31 08:02:37;;;;;;;;;;;;;;;27.75;41.29;100547.22;5086642;28;19919;-64
2022/07/31 08:05:02;;;;;;;;;;;;;;;28.04;39.58;100539.53;5085328;28;20454;-64
2022/07/31 08:07:34;;;;;;;;;;;;;;;28.41;40.22;100541.06;5086735;28;19913;-64
2022/07/31 08:09:59;;;;;;;;;;;;;;;28.88;40.26;100537.22;5086306;28;19908;-64
2022/07/31 08:12:25;;;;;;;;;;;;;;;29.28;39.55;100538.31;5086922;28;19916;-64
2022/07/31 08:14:50;;;;;;;;;;;;;;;29.54;37.79;100547.72;5086452;28;19909;-64
2022/07/31 08:17:16;;;;;;;;;;;;;;;29.63;36.75;100546.09;5086597;28;19932;-64
2022/07/31 08:19:41;;;;;;;;;;;;;;;29.50;36.11;100544.47;5086438;28;19971;-64
2022/07/31 08:22:07;;;;;;;;;;;;;;;29.70;36.26;100547.25;5086174;28;19935;-64
2022/07/31 08:24:32;;;;;;;;;;;;;;;29.78;35.82;100544.75;5086245;28;19940;-64
2022/07/31 08:29:41;;;;;;;;;;;;;;;29.60;34.25;100549.91;5086353;28;19969;-65
2022/07/31 08:32:06;;;;;;;;;;;;;;;29.38;35.48;100553.56;5085865;28;19916;-64
2022/07/31 08:34:31;;;;;;;;;;;;;;;29.09;35.90;100554.25;5086193;28;19908;-64
2022/07/31 08:36:57;;;;;;;;;;;;;;;28.97;36.03;100545.44;5086168;28;20078;-64
2022/07/31 08:39:22;;;;;;;;;;;;;;;28.72;36.22;100551.00;5086056;28;19908;-64
2022/07/31 08:41:47;;;;;;;;;;;;;;;28.35;36.94;100546.03;5085954;28;19916;-64
2022/07/31 08:44:13;;;;;;;;;;;;;;;28.70;36.48;100543.13;5085789;28;19962;-64
2022/07/31 08:46:38;;;;;;;;;;;;;;;28.77;36.32;100535.44;5086189;28;19909;-64
2022/07/31 08:49:04;;;;;;;;;;;;;;;28.66;36.32;100532.84;5085892;28;19908;-65
2022/07/31 08:51:34;;;;;;;;;;;;;;;28.54;36.57;100537.38;5085870;28;19943;-64
2022/07/31 08:54:01;;;;;;;;;;;;;;;28.84;36.37;100535.75;5085724;28;20051;-64
2022/07/31 08:56:27;;;;;;;;;;;;;;;28.89;36.53;100541.56;5084312;28;19916;-64
2022/07/31 08:58:54;;;;;;;;;;;;;;;29.37;36.48;100541.16;5085373;28;19980;-64
2022/07/31 09:01:19;;;;;;;;;;;;;;;29.86;36.17;100536.03;5085736;28;19912;-64
2022/07/31 09:03:45;;;;;;;;;;;;;;;30.34;33.60;100522.91;5086126;28;20368;-64
2022/07/31 09:06:10;;;;;;;;;;;;;;;29.88;30.43;100522.50;5085742;28;19916;-64
2022/07/31 09:08:36;;;;;;;;;;;;;;;28.81;30.95;100533.34;5085403;28;19932;-64
2022/07/31 09:11:02;;;;;;;;;;;;;;;28.47;31.58;100534.34;5084215;28;19908;-64
2022/07/31 09:13:27;;;;;;;;;;;;;;;28.11;32.17;100531.03;5085726;28;19908;-64
2022/07/31 09:15:56;;;;;;;;;;;;;;;28.11;32.10;100533.69;5085613;28;19961;-64
2022/07/31 09:18:23;;;;;;;;;;;;;;;28.33;32.02;100533.69;5085590;28;19908;-64
2022/07/31 09:20:56;;;;;;;;;;;;;;;28.79;30.70;100543.31;5085115;28;20226;-64
2022/07/31 09:23:21;;;;;;;;;;;;;;;29.15;29.88;100549.22;5085196;28;20003;-64
2022/07/31 09:25:50;;;;;;;;;;;;;;;29.30;29.94;100547.03;5085604;28;19904;-64
2022/07/31 09:28:15;;;;;;;;;;;;;;;29.56;29.46;100545.75;5085336;28;19955;-64
2022/07/31 09:30:41;;;;;;;;;;;;;;;29.85;29.62;100544.19;5085335;28;19915;-64
2022/07/31 09:33:16;;;;;;;;;;;;;;;29.88;28.06;100544.78;5085510;28;19976;-64
2022/07/31 09:35:48;;;;;;;;;;;;;;;29.93;28.69;100550.56;5085049;28;20363;-64
2022/07/31 09:38:14;;;;;;;;;;;;;;;30.02;29.20;100556.91;5085057;28;19912;-64
2022/07/31 09:40:42;;;;;;;;;;;;;;;30.26;28.71;100547.69;5085546;28;19943;-64
2022/07/31 09:43:18;;;;;;;;;;;;;;;30.49;29.23;100546.59;5085483;28;19913;-64
2022/07/31 09:45:56;;;;;;;;;;;;;;;31.12;29.21;100542.59;5085403;28;19916;-64
2022/07/31 09:48:21;;;;;;;;;;;;;;;31.47;28.04;100545.59;5085238;28;19915;-64
2022/07/31 09:50:54;;;;;;;;;;;;;;;31.42;27.05;100538.00;5084724;28;19908;-64
2022/07/31 09:53:19;;;;;;;;;;;;;;;30.71;27.47;100536.56;5084575;28;19908;-64
2022/07/31 09:55:50;;;;;;;;;;;;;;;30.34;28.58;100538.13;5084624;28;19917;-64
2022/07/31 09:58:16;;;;;;;;;;;;;;;30.51;28.27;100539.25;5083462;28;19908;-64
2022/07/31 10:00:41;;;;;;;;;;;;;;;29.74;28.33;100545.16;5085095;28;20375;-64
2022/07/31 10:03:06;;;;;;;;;;;;;;;28.28;30.36;100546.53;5084866;28;19924;-64
2022/07/31 10:05:33;;;;;;;;;;;;;;;27.10;32.40;100541.44;5084971;28;19908;-64
2022/07/31 10:07:59;;;;;;;;;;;;;;;27.22;33.61;100554.81;5084845;28;19927;-64
2022/07/31 10:10:24;;;;;;;;;;;;;;;28.03;34.08;100553.00;5085960;28;19915;-64
2022/07/31 10:12:51;;;;;;;;;;;;;;;28.81;33.16;100549.38;5088845;28;19909;-64
2022/07/31 10:15:17;;;;;;;;;;;;;;;28.83;33.53;100544.75;5088719;28;19909;-64
2022/07/31 10:17:44;;;;;;;;;;;;;;;28.82;33.89;100549.25;5088587;28;19908;-64
2022/07/31 10:20:12;;;;;;;;;;;;;;;29.32;34.03;100545.09;5088416;28;20216;-64
2022/07/31 10:22:42;;;;;;;;;;;;;;;29.77;33.85;100542.22;5088551;28;19912;-64
2022/07/31 10:25:08;;;;;;;;;;;;;;;30.18;32.97;100539.47;5088275;28;19908;-64
2022/07/31 10:27:34;;;;;;;;;;;;;;;30.29;31.49;100543.88;5088669;28;19915;-64
2022/07/31 10:30:00;;;;;;;;;;;;;;;30.01;32.69;100551.72;5088593;28;20423;-65
2022/07/31 10:32:25;;;;;;;;;;;;;;;30.15;32.96;100539.75;5088560;28;19909;-64
2022/07/31 10:34:51;;;;;;;;;;;;;;;29.75;32.40;100549.50;5088471;28;19975;-64
2022/07/31 10:37:49;;;;;;;;;;;;;;;29.01;33.23;100544.22;5088399;28;20360;-64
2022/07/31 10:40:20;;;;;;;;;;;;;;;27.90;35.34;100546.00;5097817;28;19920;-64
2022/07/31 10:42:45;;;;;;;;;;;;;;;26.91;37.19;100547.31;5088166;28;19919;-64
2022/07/31 10:45:12;;;;;;;;;;;;;;;26.28;38.35;100544.84;5088256;28;19994;-64
2022/07/31 10:47:38;;;;;;;;;;;;;;;25.92;39.12;100547.38;5088031;28;19931;-64
2022/07/31 10:50:04;;;;;;;;;;;;;;;25.85;39.56;100526.53;5087874;28;19912;-64
2022/07/31 10:52:35;;;;;;;;;;;;;;;25.96;39.64;100535.56;5086920;28;19909;-64
2022/07/31 10:55:01;;;;;;;;;;;;;;;25.99;38.65;100540.66;5087319;28;19908;-64
2022/07/31 10:57:31;;;;;;;;;;;;;;;25.84;38.92;100530.16;5087895;28;19947;-64
2022/07/31 11:00:07;;;;;;;;;;;;;;;25.99;37.82;100527.38;5088240;28;19915;-63
2022/07/31 11:02:33;;;;;;;;;;;;;;;25.85;38.11;100528.34;5088261;28;19936;-63
2022/07/31 11:05:05;;;;;;;;;;;;;;;25.63;37.64;100535.19;5087850;28;19992;-64
2022/07/31 11:07:31;;;;;;;;;;;;;;;25.18;35.22;100525.81;5087881;28;19918;-63
2022/07/31 11:10:06;;;;;;;;;;;;;;;24.83;35.13;100526.38;5087505;28;19952;-63
2022/07/31 11:12:31;;;;;;;;;;;;;;;24.54;35.91;100521.22;5087693;28;19908;-64
2022/07/31 11:14:57;;;;;;;;;;;;;;;24.43;35.98;100517.47;5087837;28;19931;-64
2022/07/31 11:17:32;;;;;;;;;;;;;;;24.42;36.79;100515.75;5087298;28;19958;-64
2022/07/31 11:19:58;;;;;;;;;;;;;;;24.55;36.39;100520.25;5087643;28;19964;-64
2022/07/31 11:22:23;;;;;;;;;;;;;;;24.44;35.23;100513.00;5086153;28;19951;-63
2022/07/31 11:24:52;;;;;;;;;;;;;;;24.37;32.91;100516.06;5087456;28;20356;-63
2022/07/31 11:27:27;;;;;;;;;;;;;;;24.21;32.73;100510.03;5087673;28;19909;-64
2022/07/31 11:29:52;;;;;;;;;;;;;;;24.05;33.42;100521.63;5087646;28;19909;-64
2022/07/31 11:32:18;;;;;;;;;;;;;;;23.92;34.30;100513.59;5087296;28;19934;-64
2022/07/31 11:34:54;;;;;;;;;;;;;;;23.83;34.23;100506.22;5087487;28;19930;-64
2022/07/31 11:37:22;;;;;;;;;;;;;;;23.59;35.63;100491.78;5087474;28;20334;-64
2022/07/31 11:39:48;;;;;;;;;;;;;;;23.39;36.83;100498.28;5087088;28;19915;-63
2022/07/31 11:42:13;;;;;;;;;;;;;;;23.28;37.31;100499.78;5087288;28;19981;-63
2022/07/31 11:44:39;;;;;;;;;;;;;;;23.16;37.64;100500.53;5086875;28;20330;-64
2022/07/31 11:47:04;;;;;;;;;;;;;;;23.15;36.38;100496.16;5086839;28;19909;-64
2022/07/31 11:49:34;;;;;;;;;;;;;;;23.12;36.12;100493.69;5087242;28;20298;-63
2022/07/31 11:52:00;;;;;;;;;;;;;;;23.14;35.87;100484.72;5086585;28;19996;-63
2022/07/31 11:54:25;;;;;;;;;;;;;;;23.13;35.32;100487.47;5086710;28;19912;-63
2022/07/31 11:56:52;;;;;;;;;;;;;;;23.23;35.69;100482.44;5086472;28;19942;-63
2022/07/31 11:59:27;;;;;;;;;;;;;;;23.28;35.95;100483.88;5087064;28;19916;-64
2022/07/31 12:01:52;;;;;;;;;;;;;;;23.33;34.45;100488.03;5086969;28;19934;-64
2022/07/31 12:04:17;;;;;;;;;;;;;;;23.32;34.01;100487.19;5086808;28;19963;-63
2022/07/31 12:06:43;;;;;;;;;;;;;;;23.33;33.91;100482.72;5086870;28;19908;-63
2022/07/31 12:09:08;;;;;;;;;;;;;;;23.32;34.13;100487.19;5086457;28;19968;-64
2022/07/31 12:11:35;;;;;;;;;;;;;;;23.40;33.51;100489.41;5086848;28;19944;-64
2022/07/31 12:14:00;;;;;;;;;;;;;;;23.49;33.49;100485.31;5086542;28;19915;-63
2022/07/31 12:16:26;;;;;;;;;;;;;;;23.47;33.61;100479.25;5086728;28;19908;-64
2022/07/31 12:18:52;;;;;;;;;;;;;;;23.51;33.91;100470.19;5086577;28;19909;-63
2022/07/31 12:21:19;;;;;;;;;;;;;;;23.54;34.15;100474.44;5086377;28;20356;-63
2022/07/31 12:23:48;;;;;;;;;;;;;;;23.47;34.46;100461.56;5086189;28;19908;-63
2022/07/31 12:26:21;;;;;;;;;;;;;;;23.57;34.58;100464.50;5086434;28;19912;-63
2022/07/31 12:29:03;;;;;;;;;;;;;;;23.77;34.91;100462.41;5085973;28;19909;-64
2022/07/31 12:31:29;;;;;;;;;;;;;;;23.63;35.24;100457.97;5085987;28;19924;-63
2022/07/31 12:33:54;;;;;;;;;;;;;;;23.82;35.34;100455.00;5085662;28;19943;-63